Map

Track Data

SID SEASON NUMBER BASIN SUBBASIN NAME ISO_TIME NATURE LAT LON WMO_WIND WMO_PRES WMO_AGENCY TRACK_TYPE DIST2LAND LANDFALL IFLAG USA_AGENCY USA_ATCF_ID USA_LAT USA_LON USA_RECORD USA_STATUS USA_WIND USA_PRES USA_SSHS USA_R34_NE USA_R34_SE USA_R34_SW USA_R34_NW USA_R50_NE USA_R50_SE USA_R50_SW USA_R50_NW USA_R64_NE USA_R64_SE USA_R64_SW USA_R64_NW USA_POCI USA_ROCI USA_RMW USA_EYE TOKYO_LAT TOKYO_LON TOKYO_GRADE TOKYO_WIND TOKYO_PRES TOKYO_R50_DIR TOKYO_R50_LONG TOKYO_R50_SHORT TOKYO_R30_DIR TOKYO_R30_LONG TOKYO_R30_SHORT TOKYO_LAND CMA_LAT CMA_LON CMA_CAT CMA_WIND CMA_PRES HKO_LAT HKO_LON HKO_CAT HKO_WIND HKO_PRES NEWDELHI_LAT NEWDELHI_LON NEWDELHI_GRADE NEWDELHI_WIND NEWDELHI_PRES NEWDELHI_CI NEWDELHI_DP NEWDELHI_POCI REUNION_LAT REUNION_LON REUNION_TYPE REUNION_WIND REUNION_PRES REUNION_TNUM REUNION_CI REUNION_RMW REUNION_R34_NE REUNION_R34_SE REUNION_R34_SW REUNION_R34_NW REUNION_R50_NE REUNION_R50_SE REUNION_R50_SW REUNION_R50_NW REUNION_R64_NE REUNION_R64_SE REUNION_R64_SW REUNION_R64_NW BOM_LAT BOM_LON BOM_TYPE BOM_WIND BOM_PRES BOM_TNUM BOM_CI BOM_RMW BOM_R34_NE BOM_R34_SE BOM_R34_SW BOM_R34_NW BOM_R50_NE BOM_R50_SE BOM_R50_SW BOM_R50_NW BOM_R64_NE BOM_R64_SE BOM_R64_SW BOM_R64_NW BOM_ROCI BOM_POCI BOM_EYE BOM_POS_METHOD BOM_PRES_METHOD NADI_LAT NADI_LON NADI_CAT NADI_WIND NADI_PRES WELLINGTON_LAT WELLINGTON_LON WELLINGTON_WIND WELLINGTON_PRES DS824_LAT DS824_LON DS824_STAGE DS824_WIND DS824_PRES TD9636_LAT TD9636_LON TD9636_STAGE TD9636_WIND TD9636_PRES TD9635_LAT TD9635_LON TD9635_WIND TD9635_PRES TD9635_ROCI NEUMANN_LAT NEUMANN_LON NEUMANN_CLASS NEUMANN_WIND NEUMANN_PRES MLC_LAT MLC_LON MLC_CLASS MLC_WIND MLC_PRES USA_GUST BOM_GUST BOM_GUST_PER REUNION_GUST REUNION_GUST_PER USA_SEAHGT USA_SEARAD_NE USA_SEARAD_SE USA_SEARAD_SW USA_SEARAD_NW STORM_SPEED STORM_DIR
1910042S19072 1910 10 SI MM NOT_NAMED 1910-02-11 06:00:00 NR -18.8000 71.6000 reunion main 1455 1434 _____O________ -1 -18.8000 71.6000 99 9.90000 4 259
1910042S19072 1910 10 SI MM NOT_NAMED 1910-02-11 09:00:00 NR -18.8387 71.3930 main 1434 1411 _____P________ -1 -18.8387 71.3930 99 4 259
1910042S19072 1910 10 SI MM NOT_NAMED 1910-02-11 12:00:00 NR -18.8809 71.1713 main 1411 1380 _____P________ -1 -18.8809 71.1713 99 5 258
1910042S19072 1910 10 SI MM NOT_NAMED 1910-02-11 15:00:00 NR -18.9301 70.9201 main 1380 1347 _____P________ -1 -18.9301 70.9201 99 5 258
1910042S19072 1910 10 SI MM NOT_NAMED 1910-02-11 18:00:00 NR -18.9899 70.6247 main 1347 1315 _____P________ -1 -18.9899 70.6247 99 6 258
1910042S19072 1910 10 SI MM NOT_NAMED 1910-02-11 21:00:00 NR -19.0636 70.2701 main 1315 1273 _____P________ -1 -19.0636 70.2701 99 8 257
1910042S19072 1910 10 SI MM NOT_NAMED 1910-02-12 00:00:00 NR -19.1546 69.8413 main 1261 1218 _____P________ -1 -19.1546 69.8413 99 9 257
1910042S19072 1910 10 SI MM NOT_NAMED 1910-02-12 03:00:00 NR -19.2658 69.3230 main 1208 1144 _____P________ -1 -19.2658 69.3230 99 11 257
1910042S19072 1910 10 SI MM NOT_NAMED 1910-02-12 06:00:00 NR -19.4000 68.7000 reunion main 1144 1069 _____O________ -1 -19.4000 68.7000 99 9.90000 13 257
1910042S19072 1910 10 SI MM NOT_NAMED 1910-02-12 09:00:00 NR -19.5585 67.9626 main 1068 984 _____P________ -1 -19.5585 67.9626 99 15 257
1910042S19072 1910 10 SI MM NOT_NAMED 1910-02-12 12:00:00 NR -19.7375 67.1256 main 973 888 _____P________ -1 -19.7375 67.1256 99 17 257
1910042S19072 1910 10 SI MM NOT_NAMED 1910-02-12 15:00:00 NR -19.9323 66.2100 main 878 782 _____P________ -1 -19.9323 66.2100 99 18 257
1910042S19072 1910 10 SI MM NOT_NAMED 1910-02-12 18:00:00 NR -20.1383 65.2369 main 772 677 _____P________ -1 -20.1383 65.2369 99 19 257
1910042S19072 1910 10 SI MM NOT_NAMED 1910-02-12 21:00:00 NR -20.3515 64.2279 main 667 573 _____P________ -1 -20.3515 64.2279 99 20 257
1910042S19072 1910 10 SI MM NOT_NAMED 1910-02-13 00:00:00 NR -20.5682 63.2044 main 563 461 _____P________ -1 -20.5682 63.2044 99 20 257
1910042S19072 1910 10 SI MM NOT_NAMED 1910-02-13 03:00:00 NR -20.7852 62.1879 main 461 372 _____P________ -1 -20.7852 62.1879 99 19 257
1910042S19072 1910 10 SI MM NOT_NAMED 1910-02-13 06:00:00 NR -21.0000 61.2000 reunion main 362 278 _____O________ -1 -21.0000 61.2000 99 9.90000 18 257
1910042S19072 1910 10 SI MM NOT_NAMED 1910-02-13 09:00:00 NR -21.1942 60.2852 main 278 203 _____P________ -1 -21.1942 60.2852 99 17 257
1910042S19072 1910 10 SI MM NOT_NAMED 1910-02-13 12:00:00 NR -21.3892 59.3824 main 203 148 _____P________ -1 -21.3892 59.3824 99 17 257
1910042S19072 1910 10 SI MM NOT_NAMED 1910-02-13 15:00:00 NR -21.5852 58.4966 main 148 134 _____P________ -1 -21.5852 58.4966 99 17 256
1910042S19072 1910 10 SI MM NOT_NAMED 1910-02-13 18:00:00 NR -21.7828 57.6328 main 145 129 _____P________ -1 -21.7828 57.6328 99 16 256
1910042S19072 1910 10 SI MM NOT_NAMED 1910-02-13 21:00:00 NR -21.9825 56.7960 main 129 98 _____P________ -1 -21.9825 56.7960 99 16 255
1910042S19072 1910 10 SI MM NOT_NAMED 1910-02-14 00:00:00 NR -22.1847 55.9914 main 98 91 _____P________ -1 -22.1847 55.9914 99 15 254
1910042S19072 1910 10 SI MM NOT_NAMED 1910-02-14 03:00:00 NR -22.3903 55.2243 main 119 119 _____P________ -1 -22.3903 55.2243 99 14 253
1910042S19072 1910 10 SI MM NOT_NAMED 1910-02-14 06:00:00 NR -22.6000 54.5000 reunion main 167 167 _____O________ -1 -22.6000 54.5000 99 9.90000 14 252
1910042S19072 1910 10 SI MM NOT_NAMED 1910-02-14 09:00:00 NR -22.8124 53.7834 main 228 228 _____P________ -1 -22.8124 53.7834 99 14 251
1910042S19072 1910 10 SI MM NOT_NAMED 1910-02-14 12:00:00 NR -23.0304 53.1060 main 295 295 _____P________ -1 -23.0304 53.1060 99 13 250
1910042S19072 1910 10 SI MM NOT_NAMED 1910-02-14 15:00:00 NR -23.2531 52.4684 main 364 364 _____P________ -1 -23.2531 52.4684 99 12 248
1910042S19072 1910 10 SI MM NOT_NAMED 1910-02-14 18:00:00 NR -23.4794 51.8710 main 424 368 _____P________ -1 -23.4794 51.8710 99 12 247
1910042S19072 1910 10 SI MM NOT_NAMED 1910-02-14 21:00:00 NR -23.7084 51.3147 main 368 320 _____P________ -1 -23.7084 51.3147 99 11 245
1910042S19072 1910 10 SI MM NOT_NAMED 1910-02-15 00:00:00 NR -23.9389 50.8002 main 320 285 _____P________ -1 -23.9389 50.8002 99 10 243
1910042S19072 1910 10 SI MM NOT_NAMED 1910-02-15 03:00:00 NR -24.1698 50.3283 main 279 247 _____P________ -1 -24.1698 50.3283 99 9 241
1910042S19072 1910 10 SI MM NOT_NAMED 1910-02-15 06:00:00 NR -24.4000 49.9000 reunion main 247 213 _____O________ -1 -24.4000 49.9000 99 9.90000 9 240
1910042S19072 1910 10 SI MM NOT_NAMED 1910-02-15 09:00:00 NR -24.6305 49.4516 main 213 184 _____P________ -1 -24.6305 49.4516 99 9 239
1910042S19072 1910 10 SI MM NOT_NAMED 1910-02-15 12:00:00 NR -24.8627 49.0457 main 177 156 _____P________ -1 -24.8627 49.0457 99 8 236
1910042S19072 1910 10 SI MM NOT_NAMED 1910-02-15 15:00:00 NR -25.0951 48.6839 main 156 134 _____P________ -1 -25.0951 48.6839 99 8 233
1910042S19072 1910 10 SI MM NOT_NAMED 1910-02-15 18:00:00 NR -25.3260 48.3679 main 134 114 _____P________ -1 -25.3260 48.3679 99 7 229
1910042S19072 1910 10 SI MM NOT_NAMED 1910-02-15 21:00:00 NR -25.5536 48.0997 main 120 112 _____P________ -1 -25.5536 48.0997 99 6 224
1910042S19072 1910 10 SI MM NOT_NAMED 1910-02-16 00:00:00 NR -25.7764 47.8811 main 119 112 _____P________ -1 -25.7764 47.8811 99 6 218
1910042S19072 1910 10 SI MM NOT_NAMED 1910-02-16 03:00:00 NR -25.9924 47.7139 main 122 122 _____P________ -1 -25.9924 47.7139 99 5 211
1910042S19072 1910 10 SI MM NOT_NAMED 1910-02-16 06:00:00 NR -26.2000 47.6000 reunion main 136 136 _____O________ -1 -26.2000 47.6000 99 9.90000 4 201
1910042S19072 1910 10 SI MM NOT_NAMED 1910-02-16 09:00:00 NR -26.3977 47.5400 main 151 151 _____P________ -1 -26.3977 47.5400 99 4 189
1910042S19072 1910 10 SI MM NOT_NAMED 1910-02-16 12:00:00 NR -26.5864 47.5286 main 171 171 _____P________ -1 -26.5864 47.5286 99 4 0
1910042S19072 1910 10 SI MM NOT_NAMED 1910-02-16 15:00:00 NR -26.7673 47.5591 main 195 195 _____P________ -1 -26.7673 47.5591 99 4 166
1910042S19072 1910 10 SI MM NOT_NAMED 1910-02-16 18:00:00 NR -26.9418 47.6247 main 206 206 _____P________ -1 -26.9418 47.6247 99 4 158
1910042S19072 1910 10 SI MM NOT_NAMED 1910-02-16 21:00:00 NR -27.1111 47.7185 main 230 230 _____P________ -1 -27.1111 47.7185 99 4 151
1910042S19072 1910 10 SI MM NOT_NAMED 1910-02-17 00:00:00 NR -27.2764 47.8336 main 254 254 _____P________ -1 -27.2764 47.8336 99 4 146
1910042S19072 1910 10 SI MM NOT_NAMED 1910-02-17 03:00:00 NR -27.4389 47.9631 main 273 273 _____P________ -1 -27.4389 47.9631 99 4 144
1910042S19072 1910 10 SI MM NOT_NAMED 1910-02-17 06:00:00 NR -27.6000 48.1000 reunion main 297 _____O________ -1 -27.6000 48.1000 99 9.90000 4 143

About IBTrACS Database

This database is a web-friendly format of International Best Track Archive for Climate Stewardship (IBTrACS), a global best track data archive curated by NOAA dating back to 1842.

Updated: 2021-10-27